Flight Track Log - Related Links

Times and Time Zones

All times are in EDT time to prevent confusion due to time zone crossing. See the CCA1557 flight status page for this flight to view local times or setup timezone preferences in your user account.

Time Position Orientation Groundspeed Altitude Reporting Facility
EDT Latitude Longitude Course Direction KTS MPH feet Rate Location/Type
Thu 11:53:15 PM 40.0582 116.5979 155° Southeast  Level Estimated
Thu 11:54:15 PM 39.9703 116.6511 155° Southeast  Level Estimated
Thu 11:55:15 PM 39.8824 116.7042 155° Southeast  Level Estimated
Thu 11:56:15 PM 39.7945 116.7572 155° Southeast  Level Estimated
Thu 11:57:15 PM 39.7066 116.8100 155° Southeast  Level Estimated
Thu 11:58:15 PM 39.6186 116.8627 155° Southeast  Level Estimated
Thu 11:59:15 PM 39.5306 116.9153 155° Southeast  Level Estimated
Fri 12:00:15 AM 39.4426 116.9677 155° Southeast  Level Estimated
Fri 12:01:15 AM 39.3546 117.0200 155° Southeast  Level Estimated
Fri 12:02:15 AM 39.2665 117.0722 155° Southeast  Level Estimated
Fri 12:03:15 AM 39.1784 117.1242 155° Southeast  Level Estimated
Fri 12:04:15 AM 39.0903 117.1761 155° Southeast  Level Estimated
Fri 12:05:15 AM 39.0022 117.2279 155° Southeast  Level Estimated
Fri 12:06:15 AM 38.9141 117.2796 156° South  Level Estimated
Fri 12:07:15 AM 38.8259 117.3311 156° South  Level Estimated
Fri 12:08:15 AM 38.7377 117.3825 156° South  Level Estimated
Fri 12:09:15 AM 38.6495 117.4337 156° South  Level Estimated
Fri 12:10:15 AM 38.5612 117.4849 156° South  Level Estimated
Fri 12:11:15 AM 38.4730 117.5359 156° South  Level Estimated
Fri 12:12:15 AM 38.3847 117.5868 156° South  Level Estimated
Fri 12:13:15 AM 38.2964 117.6375 156° South  Level Estimated
Fri 12:14:15 AM 38.2080 117.6882 156° South  Level Estimated
Fri 12:15:15 AM 38.1197 117.7387 156° South  Level Estimated
Fri 12:16:15 AM 38.0313 117.7891 156° South  Level Estimated
Fri 12:17:15 AM 37.9429 117.8394 156° South  Level Estimated
Fri 12:18:15 AM 37.8545 117.8895 156° South  Level Estimated
Fri 12:19:15 AM 37.7661 117.9396 156° South  Level Estimated
Fri 12:20:15 AM 37.6777 117.9895 156° South  Level Estimated
Fri 12:21:15 AM 37.5892 118.0393 156° South  Level Estimated
Fri 12:22:15 AM 37.5007 118.0890 156° South  Level Estimated
Fri 12:23:15 AM 37.4122 118.1385 156° South  Level Estimated
Fri 12:24:15 AM 37.3236 118.1880 156° South  Level Estimated
Fri 12:25:15 AM 37.2351 118.2373 156° South  Level Estimated
Fri 12:26:15 AM 37.1465 118.2865 156° South  Level Estimated
Fri 12:27:15 AM 37.0579 118.3356 156° South  Level Estimated
Fri 12:28:15 AM 36.9692 118.3846 156° South  Level Estimated
Fri 12:29:15 AM 36.8806 118.4334 156° South  Level Estimated
Fri 12:30:15 AM 36.7920 118.4822 156° South  Level Estimated
Fri 12:31:15 AM 36.7033 118.5308 156° South  Level Estimated
Fri 12:32:15 AM 36.6146 118.5794 156° South  Level Estimated
Fri 12:33:15 AM 36.5258 118.6278 156° South  Level Estimated
Fri 12:34:15 AM 36.4371 118.6761 156° South  Level Estimated
Fri 12:35:15 AM 36.3484 118.7243 156° South  Level Estimated
Fri 12:36:15 AM 36.2596 118.7724 156° South  Level Estimated
Fri 12:37:15 AM 36.1708 118.8203 156° South  Level Estimated
Fri 12:38:15 AM 36.0820 118.8682 156° South  Level Estimated
Fri 12:39:15 AM 35.9931 118.9160 157° South  Level Estimated
Fri 12:40:15 AM 35.9043 118.9636 157° South  Level Estimated
Fri 12:41:15 AM 35.8154 119.0112 157° South  Level Estimated
Fri 12:42:15 AM 35.7265 119.0586 157° South  Level Estimated
Fri 12:43:15 AM 35.6376 119.1059 157° South  Level Estimated
Fri 12:44:15 AM 35.5487 119.1532 157° South  Level Estimated
Fri 12:45:15 AM 35.4597 119.2003 157° South  Level Estimated
Fri 12:46:15 AM 35.3707 119.2473 157° South  Level Estimated
Fri 12:47:15 AM 35.2818 119.2942 157° South  Level Estimated
Fri 12:48:15 AM 35.1928 119.3410 157° South  Level Estimated
Fri 12:49:15 AM 35.1037 119.3877 157° South  Level Estimated
Fri 12:50:15 AM 35.0147 119.4343 157° South  Level Estimated
Fri 12:51:15 AM 34.9257 119.4809 157° South  Level Estimated
Fri 12:52:15 AM 34.8366 119.5273 157° South  Level Estimated
Fri 12:53:15 AM 34.7475 119.5736 157° South  Level Estimated
Fri 12:54:15 AM 34.6584 119.6198 157° South  Level Estimated
Fri 12:55:15 AM 34.5692 119.6659 157° South  Level Estimated
Fri 12:56:15 AM 34.4801 119.7119 157° South  Level Estimated
Fri 12:57:15 AM 34.3909 119.7578 157° South  Level Estimated
Fri 12:58:15 AM 34.3018 119.8036 157° South  Level Estimated
Fri 12:59:15 AM 34.2126 119.8493 157° South  Level Estimated
Fri 01:00:15 AM 34.1234 119.8950 157° South  Level Estimated
Fri 01:01:15 AM 34.0341 119.9405 157° South  Level Estimated
Fri 01:02:15 AM 33.9449 119.9859 157° South  Level Estimated
Fri 01:03:15 AM 33.8556 120.0312 157° South  Level Estimated
Fri 01:04:15 AM 33.7664 120.0765 157° South  Level Estimated
Fri 01:05:15 AM 33.6771 120.1216 157° South  Level Estimated
Fri 01:06:15 AM 33.5878 120.1667 157° South  Level Estimated
Fri 01:07:15 AM 33.4984 120.2116 157° South  Level Estimated
Fri 01:08:15 AM 33.4091 120.2565 157° South  Level Estimated
Fri 01:09:15 AM 33.3197 120.3013 157° South  Level Estimated
Fri 01:10:15 AM 33.2304 120.3459 157° South  Level Estimated
Fri 01:11:15 AM 33.1410 120.3905 157° South  Level Estimated
Fri 01:12:15 AM 33.0516 120.4350 157° South  Level Estimated
Fri 01:13:15 AM 32.9621 120.4794 157° South  Level Estimated
Fri 01:14:15 AM 32.8727 120.5238 157° South  Level Estimated
Fri 01:15:15 AM 32.7832 120.5680 157° South  Level Estimated
Fri 01:16:15 AM 32.6938 120.6121 157° South  Level Estimated
Fri 01:17:15 AM 32.6043 120.6562 157° South  Level Estimated
Fri 01:18:15 AM 32.5148 120.7001 158° South  Level Estimated
Fri 01:19:15 AM 32.4253 120.7440 158° South  Level Estimated
Fri 01:20:15 AM 32.3357 120.7878 158° South  Level Estimated
Fri 01:21:15 AM 32.2462 120.8315 158° South  Level Estimated
Fri 01:22:15 AM 32.1566 120.8751 158° South  Level Estimated
Fri 01:23:15 AM 32.0671 120.9187 158° South  Level Estimated
Fri 01:24:15 AM 31.9775 120.9621 158° South  Level Estimated
Fri 01:25:15 AM 31.8879 121.0055 158° South  Level Estimated
Fri 01:26:15 AM 31.7983 121.0487 158° South  Level Estimated
Fri 01:27:15 AM 31.7086 121.0919 158° South  Level Estimated
Fri 01:28:15 AM 31.6190 121.1350 158° South  Level Estimated
Fri 01:29:15 AM 31.5293 121.1781 158° South  Level Estimated

Login

Don't have an account? Register now (free) for customized features, flight alerts, and more!